| time (UTC) | temp C | wind direction | speed KPH | gust KPH | rain 1hr cm | rain 24hr cm | rain mn cm | humidity % | barometer mb |
| 20260503230036 | 21 | 147 | 0.0 | 4.8 | 0.00 | 0.00 | 0.00 | 42 | 1016.3 |
| 20260503230028 | 21 | 147 | 0.0 | 4.8 | 0.00 | 0.00 | 0.00 | 42 | 1015.6 |
| 20260503224532 | 21 | 139 | 0.0 | 6.4 | 0.00 | 0.00 | 0.00 | 39 | 1016.4 |
| 20260503224527 | 21 | 139 | 0.0 | 6.4 | 0.00 | 0.00 | 0.00 | 39 | 1015.7 |
| 20260503223041 | 21 | 0 | 0.0 | 11.3 | 0.00 | 0.00 | 0.00 | 39 | 1016.4 |
| 20260503223024 | 21 | 150 | 0.0 | 11.3 | 0.00 | 0.00 | 0.00 | 39 | 1015.7 |
| 20260503221540 | 21 | 162 | 1.6 | 8.0 | 0.00 | 0.00 | 0.00 | 39 | 1016.6 |
| 20260503221522 | 21 | 153 | 1.6 | 8.0 | 0.00 | 0.00 | 0.00 | 39 | 1015.9 |
| 20260503220037 | 21 | 0 | 0.0 | 9.7 | 0.00 | 0.00 | 0.00 | 39 | 1016.6 |
| 20260503220021 | 21 | 107 | 0.0 | 8.0 | 0.00 | 0.00 | 0.00 | 39 | 1016.0 |
| 20260503214535 | 21 | 122 | 0.0 | 9.7 | 0.00 | 0.00 | 0.00 | 39 | 1016.2 |
| 20260503213039 | 20 | 102 | 1.6 | 9.7 | 0.00 | 0.00 | 0.00 | 38 | 1016.9 |
| 20260503213015 | 20 | 102 | 1.6 | 9.7 | 0.00 | 0.00 | 0.00 | 39 | 1016.3 |
| 20260503211557 | 20 | 149 | 1.6 | 9.7 | 0.00 | 0.00 | 0.00 | 38 | 1017.0 |
| 20260503211513 | 20 | 147 | 3.2 | 9.7 | 0.00 | 0.00 | 0.00 | 38 | 1016.5 |
| 20260503210037 | 20 | 146 | 1.6 | 11.3 | 0.00 | 0.00 | 0.00 | 39 | 1017.2 |
| 20260503210010 | 20 | 153 | 0.0 | 11.3 | 0.00 | 0.00 | 0.00 | 39 | 1016.6 |
| 20260503204538 | 20 | 0 | 4.8 | 11.3 | 0.00 | 0.00 | 0.00 | 41 | 1017.3 |
| 20260503204507 | 20 | 137 | 3.2 | 11.3 | 0.00 | 0.00 | 0.00 | 42 | 1016.8 |
| 20260503203036 | 20 | 146 | 1.6 | 8.0 | 0.00 | 0.00 | 0.00 | 39 | 1017.9 |
| 20260503203004 | 20 | 148 | 0.0 | 8.0 | 0.00 | 0.00 | 0.00 | 39 | 1017.1 |
| 20260503201534 | 19 | 155 | 8.0 | 16.1 | 0.00 | 0.00 | 0.00 | 43 | 1018.2 |
| 20260503201502 | 19 | 163 | 4.8 | 16.1 | 0.00 | 0.00 | 0.00 | 44 | 1017.4 |
| 20260503200118 | 19 | 149 | 3.2 | 9.7 | 0.00 | 0.00 | 0.00 | 43 | 1017.7 |
| 20260503194604 | 18 | 148 | 8.0 | 12.9 | 0.00 | 0.00 | 0.00 | 44 | 1018.1 |
| 20260503194536 | 18 | 144 | 8.0 | 12.9 | 0.00 | 0.00 | 0.00 | 43 | 1018.7 |
| 20260503193104 | 18 | 154 | 1.6 | 12.9 | 0.00 | 0.00 | 0.00 | 43 | 1018.4 |
| 20260503193038 | 18 | 114 | 4.8 | 12.9 | 0.00 | 0.00 | 0.00 | 42 | 1019.0 |
| 20260503191606 | 18 | 127 | 3.2 | 12.9 | 0.00 | 0.00 | 0.00 | 41 | 1018.7 |
| 20260503191537 | 18 | 146 | 6.4 | 12.9 | 0.00 | 0.00 | 0.00 | 40 | 1019.2 |
| 20260503190037 | 18 | 111 | 1.6 | 6.4 | 0.00 | 0.00 | 0.00 | 41 | 1019.5 |
| 20260503184616 | 18 | 108 | 0.0 | 9.7 | 0.00 | 0.00 | 0.00 | 41 | 1019.0 |
| 20260503184539 | 18 | 113 | 1.6 | 9.7 | 0.00 | 0.00 | 0.00 | 42 | 1019.6 |
| 20260503183053 | 18 | 105 | 0.0 | 6.4 | 0.00 | 0.00 | 0.00 | 39 | 1019.2 |
| 20260503183039 | 18 | 117 | 0.0 | 14.5 | 0.00 | 0.00 | 0.00 | 38 | 1019.8 |
| 20260503181612 | 17 | 173 | 4.8 | 11.3 | 0.00 | 0.00 | 0.00 | 38 | 1020.0 |
| 20260503181610 | 17 | 175 | 1.6 | 11.3 | 0.00 | 0.00 | 0.00 | 39 | 1019.5 |
| 20260503180111 | 16 | 147 | 6.4 | 12.9 | 0.00 | 0.00 | 0.00 | 42 | 1019.7 |
| 20260503180040 | 17 | 146 | 6.4 | 12.9 | 0.00 | 0.00 | 0.00 | 41 | 1020.3 |
| 20260503174556 | 17 | 150 | 1.6 | 8.0 | 0.00 | 0.00 | 0.00 | 41 | 1019.9 |
| 20260503174532 | 17 | 148 | 0.0 | 8.0 | 0.00 | 0.00 | 0.00 | 41 | 1020.5 |
| 20260503173058 | 16 | 150 | 1.6 | 12.9 | 0.00 | 0.00 | 0.00 | 45 | 1020.2 |
| 20260503173044 | 16 | 146 | 4.8 | 12.9 | 0.00 | 0.00 | 0.00 | 44 | 1020.6 |
| 20260503171548 | 16 | 124 | 0.0 | 9.7 | 0.00 | 0.00 | 0.00 | 43 | 1020.3 |
| 20260503171536 | 16 | 144 | 1.6 | 9.7 | 0.00 | 0.00 | 0.00 | 42 | 1020.8 |
| 20260503081540 | 5 | 101 | 0.0 | 0.0 | 0.00 | 0.00 | 0.00 | 63 | 1018.7 |
| 20260503081538 | 5 | 0 | 0.0 | 0.0 | 0.00 | 0.00 | 0.00 | 63 | 1019.3 |
| 20260503071535 | 5 | 0 | 0.0 | 0.0 | 0.00 | 0.00 | 0.00 | 71 | 1018.7 |
| 20260503071521 | 5 | 101 | 0.0 | 0.0 | 0.00 | 0.00 | 0.00 | 71 | 1018.1 |
| 20260503054532 | 6 | 0 | 0.0 | 1.6 | 0.00 | 0.00 | 0.00 | 83 | 1018.6 |
| 20260503054515 | 6 | 102 | 0.0 | 0.0 | 0.00 | 0.00 | 0.00 | 83 | 1017.8 |
| 20260503053040 | 7 | 0 | 0.0 | 0.0 | 0.00 | 0.00 | 0.00 | 83 | 1018.5 |
| 20260503053007 | 7 | 98 | 0.0 | 0.0 | 0.00 | 0.00 | 0.00 | 84 | 1017.8 |
| 20260503051533 | 7 | 0 | 0.0 | 0.0 | 0.00 | 0.00 | 0.00 | 83 | 1018.5 |
| 20260503051502 | 7 | 98 | 0.0 | 0.0 | 0.00 | 0.00 | 0.00 | 84 | 1017.6 |
| 20260503050101 | 7 | 98 | 0.0 | 0.0 | 0.00 | 0.00 | 0.00 | 83 | 1017.5 |
| 20260503050036 | 7 | 0 | 0.0 | 0.0 | 0.00 | 0.00 | 0.00 | 82 | 1018.3 |
| 20260503044609 | 8 | 99 | 0.0 | 1.6 | 0.00 | 0.00 | 0.00 | 81 | 1017.5 |
| 20260503044603 | 8 | 0 | 0.0 | 1.6 | 0.00 | 0.00 | 0.00 | 80 | 1018.4 |
| 20260503043058 | 8 | 102 | 0.0 | 0.0 | 0.00 | 0.00 | 0.00 | 79 | 1017.4 |
| 20260503043030 | 8 | 0 | 0.0 | 0.0 | 0.00 | 0.00 | 0.00 | 79 | 1018.3 |
| 20260503041554 | 8 | 155 | 0.0 | 1.6 | 0.00 | 0.00 | 0.00 | 80 | 1017.4 |
| 20260503041536 | 8 | 133 | 0.0 | 1.6 | 0.00 | 0.00 | 0.00 | 79 | 1018.4 |
| 20260503040100 | 9 | 97 | 0.0 | 0.0 | 0.00 | 0.00 | 0.00 | 77 | 1017.4 |
| 20260503040034 | 9 | 0 | 0.0 | 0.0 | 0.00 | 0.00 | 0.00 | 76 | 1018.2 |
| 20260503034558 | 10 | 97 | 0.0 | 0.0 | 0.00 | 0.00 | 0.00 | 75 | 1017.3 |
| 20260503034539 | 10 | 0 | 0.0 | 0.0 | 0.00 | 0.00 | 0.00 | 75 | 1018.1 |
| 20260503033050 | 10 | 176 | 0.0 | 0.0 | 0.00 | 0.00 | 0.00 | 72 | 1017.0 |
| 20260503033039 | 10 | 0 | 0.0 | 0.0 | 0.00 | 0.00 | 0.00 | 71 | 1017.7 |
| 20260503031548 | 11 | 179 | 0.0 | 0.0 | 0.00 | 0.00 | 0.00 | 69 | 1017.1 |
| 20260503031533 | 11 | 0 | 0.0 | 3.2 | 0.00 | 0.00 | 0.00 | 68 | 1017.9 |
| 20260503030113 | 11 | 148 | 1.6 | 6.4 | 0.00 | 0.00 | 0.00 | 66 | 1017.1 |
| 20260503030041 | 11 | 153 | 0.0 | 6.4 | 0.00 | 0.00 | 0.00 | 65 | 1017.9 |
| 20260503024547 | 12 | 174 | 0.0 | 11.3 | 0.00 | 0.00 | 0.00 | 65 | 1017.1 |
| 20260503024536 | 12 | 0 | 1.6 | 11.3 | 0.00 | 0.00 | 0.00 | 65 | 1017.8 |
| 20260503023046 | 12 | 152 | 4.8 | 12.9 | 0.00 | 0.00 | 0.00 | 67 | 1017.2 |
| 20260503023040 | 12 | 146 | 6.4 | 17.7 | 0.00 | 0.00 | 0.00 | 64 | 1017.9 |
| 20260503021545 | 12 | 174 | 6.4 | 20.9 | 0.00 | 0.00 | 0.00 | 62 | 1017.1 |
| 20260503021536 | 12 | 90 | 4.8 | 20.9 | 0.00 | 0.00 | 0.00 | 62 | 1017.8 |
| 20260503020042 | 13 | 159 | 1.6 | 11.3 | 0.00 | 0.00 | 0.00 | 62 | 1016.7 |
| 20260503020036 | 13 | 151 | 3.2 | 11.3 | 0.00 | 0.00 | 0.00 | 62 | 1017.5 |
| 20260503014552 | 13 | 141 | 1.6 | 11.3 | 0.00 | 0.00 | 0.00 | 58 | 1016.3 |
| 20260503014538 | 13 | 142 | 3.2 | 11.3 | 0.00 | 0.00 | 0.00 | 58 | 1017.1 |
| 20260503013036 | 12 | 0 | 1.6 | 8.0 | 0.00 | 0.00 | 0.00 | 62 | 1016.7 |
| 20260503011538 | 11 | 0 | 0.0 | 6.4 | 0.00 | 0.00 | 0.00 | 67 | 1016.4 |
| 20260503010039 | 11 | 0 | 0.0 | 0.0 | 0.00 | 0.00 | 0.00 | 68 | 1016.1 |
| 20260503010032 | 11 | 116 | 0.0 | 0.0 | 0.00 | 0.00 | 0.00 | 68 | 1015.2 |
| 20260503004534 | 12 | 0 | 0.0 | 0.0 | 0.00 | 0.00 | 0.00 | 64 | 1015.9 |
| 20260503004531 | 12 | 116 | 0.0 | 0.0 | 0.00 | 0.00 | 0.00 | 65 | 1014.9 |
| 20260503003038 | 12 | 0 | 0.0 | 0.0 | 0.00 | 0.00 | 0.00 | 58 | 1015.7 |
| 20260503003030 | 12 | 116 | 0.0 | 0.0 | 0.00 | 0.00 | 0.00 | 58 | 1014.8 |
| 20260503001549 | 13 | 0 | 0.0 | 0.0 | 0.00 | 0.00 | 0.00 | 54 | 1015.5 |
| 20260503001530 | 13 | 117 | 0.0 | 1.6 | 0.00 | 0.00 | 0.00 | 56 | 1014.7 |
| 20260503000048 | 15 | 0 | 0.0 | 3.2 | 0.00 | 0.00 | 0.00 | 51 | 1015.3 |
| 20260503000033 | 15 | 96 | 0.0 | 1.6 | 0.00 | 0.00 | 0.00 | 52 | 1014.4 |
| 20260502234549 | 16 | 0 | 0.0 | 6.4 | 0.00 | 0.00 | 0.00 | 46 | 1015.0 |
| 20260502234529 | 16 | 159 | 0.0 | 6.4 | 0.00 | 0.00 | 0.00 | 46 | 1014.2 |
| 20260502233033 | 16 | 0 | 1.6 | 8.0 | 0.00 | 0.00 | 0.00 | 43 | 1014.9 |
| 20260502233028 | 16 | 93 | 0.0 | 6.4 | 0.00 | 0.00 | 0.00 | 43 | 1014.1 |
| 20260502231534 | 16 | 169 | 1.6 | 12.9 | 0.00 | 0.00 | 0.00 | 42 | 1015.0 |
| 20260502231527 | 16 | 150 | 0.0 | 12.9 | 0.00 | 0.00 | 0.00 | 43 | 1014.1 |